Time;durP1;ratioP1;P1;durP2;ratioP2;P2;SDS_P1;SDS_P2;PMS_P1;PMS_P2;Temp;Humidity;BMP_temperature;BMP_pressure;BME280_temperature;BME280_humidity;BME280_pressure;Samples;Min_cycle;Max_cycle;Signal;HPM_P1;HPM_P2
2022/10/18 00:01:52;;;;;;;3.22;2.53;;;18.10;99.90;;;;;;5043078;28;20023;-84
2022/10/18 00:04:17;;;;;;;4.20;2.57;;;18.10;99.90;;;;;;5066544;28;20056;-83
2022/10/18 00:06:43;;;;;;;3.65;2.40;;;18.10;99.90;;;;;;5056743;28;20017;-84
2022/10/18 00:09:09;;;;;;;3.00;2.30;;;18.10;99.90;;;;;;5071745;28;20106;-83
2022/10/18 00:11:34;;;;;;;4.00;2.63;;;18.10;99.90;;;;;;5056232;28;20182;-83
2022/10/18 00:14:00;;;;;;;3.27;2.37;;;18.10;99.90;;;;;;5049262;28;20362;-83
2022/10/18 00:16:26;;;;;;;4.00;2.40;;;18.10;99.90;;;;;;5036341;28;20035;-83
2022/10/18 00:18:51;;;;;;;3.20;2.33;;;18.10;99.90;;;;;;5039570;28;20028;-83
2022/10/18 00:21:20;;;;;;;3.27;2.40;;;18.10;99.90;;;;;;5037179;28;20021;-83
2022/10/18 00:23:47;;;;;;;4.03;2.55;;;18.10;99.90;;;;;;5058926;28;20074;-83
2022/10/18 00:26:14;;;;;;;4.03;2.45;;;18.00;99.90;;;;;;5051367;28;20035;-84
2022/10/18 00:28:41;;;;;;;3.38;2.20;;;18.10;99.90;;;;;;5051745;28;20211;-83
2022/10/18 00:31:19;;;;;;;4.30;2.70;;;18.00;99.90;;;;;;5063015;28;20024;-83
2022/10/18 00:33:48;;;;;;;4.77;2.60;;;18.10;99.90;;;;;;5037600;28;20234;-83
2022/10/18 00:36:14;;;;;;;4.50;2.80;;;18.00;99.90;;;;;;5065204;28;20035;-83
2022/10/18 00:38:40;;;;;;;3.45;2.40;;;18.00;99.90;;;;;;5052608;28;20451;-83
2022/10/18 00:41:07;;;;;;;3.60;2.50;;;18.00;99.90;;;;;;5045504;28;20028;-83
2022/10/18 00:43:54;;;;;;;3.25;2.28;;;18.00;99.90;;;;;;5029958;28;20325;-83
2022/10/18 00:46:21;;;;;;;3.60;2.40;;;18.00;99.90;;;;;;5066380;28;20053;-83
2022/10/18 00:48:47;;;;;;;4.68;2.60;;;18.00;99.90;;;;;;5059488;28;20102;-84
2022/10/18 00:51:14;;;;;;;3.60;2.17;;;18.00;99.90;;;;;;5052599;28;20314;-84
2022/10/18 00:53:39;;;;;;;3.93;2.60;;;18.00;99.90;;;;;;5037002;28;20325;-83
2022/10/18 00:56:05;;;;;;;4.05;2.33;;;18.00;99.90;;;;;;5058509;28;20032;-83
2022/10/18 00:58:31;;;;;;;4.03;2.63;;;18.00;99.90;;;;;;5060780;28;20143;-83
2022/10/18 01:00:57;;;;;;;4.07;2.40;;;18.00;99.90;;;;;;5035589;28;20016;-83
2022/10/18 01:03:22;;;;;;;3.50;2.53;;;18.00;99.90;;;;;;5063328;28;20224;-83
2022/10/18 01:05:48;;;;;;;4.17;2.50;;;18.00;99.90;;;;;;5051775;28;20016;-83
2022/10/18 01:08:23;;;;;;;3.95;2.70;;;18.00;99.90;;;;;;5049798;28;20052;-83
2022/10/18 01:11:03;;;;;;;3.97;2.70;;;18.00;99.90;;;;;;5066874;28;20220;-83
2022/10/18 01:13:54;;;;;;;5.07;2.80;;;18.00;99.90;;;;;;5051918;28;20047;-84
2022/10/18 01:16:29;;;;;;;4.70;2.70;;;18.00;99.90;;;;;;5053237;28;20044;-83
2022/10/18 01:19:17;;;;;;;3.38;2.40;;;18.00;99.90;;;;;;5073807;28;20038;-84
2022/10/18 01:21:51;;;;;;;5.40;2.42;;;18.00;99.90;;;;;;5060748;28;20312;-84
2022/10/18 01:24:44;;;;;;;4.53;2.70;;;18.00;99.90;;;;;;5062605;28;20066;-83
2022/10/18 01:27:32;;;;;;;3.77;2.67;;;18.00;99.90;;;;;;5062938;28;20016;-83
2022/10/18 01:30:06;;;;;;;3.58;2.50;;;17.90;99.90;;;;;;5069903;28;20020;-83
2022/10/18 01:32:38;;;;;;;4.75;2.55;;;17.90;99.90;;;;;;5060592;28;21191;-84
2022/10/18 01:35:12;;;;;;;3.85;2.58;;;17.90;99.90;;;;;;5069590;28;20423;-84
2022/10/18 01:37:40;;;;;;;2.67;2.10;;;17.90;99.90;;;;;;5061376;28;20301;-83
2022/10/18 01:40:07;;;;;;;3.60;2.23;;;17.90;99.90;;;;;;5066119;28;20099;-83
2022/10/18 01:42:33;;;;;;;3.33;1.92;;;17.90;99.90;;;;;;5049812;28;20248;-83
2022/10/18 01:45:02;;;;;;;4.63;2.38;;;17.90;99.90;;;;;;5066465;28;20024;-83
2022/10/18 01:47:28;;;;;;;3.72;2.53;;;17.90;99.90;;;;;;5058167;28;20548;-83
2022/10/18 01:50:04;;;;;;;3.85;2.50;;;17.90;99.90;;;;;;5064994;28;20056;-83
2022/10/18 01:52:30;;;;;;;4.27;2.40;;;17.90;99.90;;;;;;5039090;28;20059;-84
2022/10/18 01:54:57;;;;;;;3.72;2.40;;;17.90;99.90;;;;;;5046013;28;20547;-83
2022/10/18 01:57:38;;;;;;;4.82;2.40;;;17.90;99.90;;;;;;5036748;28;20048;-83
2022/10/18 02:00:09;;;;;;;3.57;2.33;;;17.90;99.90;;;;;;5063668;28;20141;-83
2022/10/18 02:03:16;;;;;;;8.45;2.65;;;17.90;99.90;;;;;;5048013;28;20660;-84
2022/10/18 02:05:41;;;;;;;3.28;2.00;;;17.90;99.90;;;;;;5008568;28;20172;-84
2022/10/18 02:08:16;;;;;;;4.83;2.07;;;17.80;99.90;;;;;;5026811;28;20564;-83
2022/10/18 02:10:47;;;;;;;4.68;2.50;;;17.80;99.90;;;;;;5007846;28;20355;-83
2022/10/18 02:13:17;;;;;;;4.10;2.50;;;17.80;99.90;;;;;;5068603;28;20036;-83
2022/10/18 02:15:46;;;;;;;3.53;2.17;;;17.80;99.90;;;;;;5039187;28;20024;-83
2022/10/18 02:18:17;;;;;;;7.22;2.60;;;17.80;99.90;;;;;;5049757;28;20025;-83
2022/10/18 02:20:44;;;;;;;2.87;2.13;;;17.80;99.90;;;;;;5055295;28;20109;-83
2022/10/18 02:23:11;;;;;;;4.15;2.20;;;17.70;99.90;;;;;;5056972;28;20630;-83
2022/10/18 02:25:38;;;;;;;4.22;2.45;;;17.70;99.90;;;;;;5064914;28;20379;-83
2022/10/18 02:28:04;;;;;;;3.08;2.08;;;17.70;99.90;;;;;;5053438;28;20017;-83
2022/10/18 02:30:55;;;;;;;4.03;2.30;;;17.70;99.90;;;;;;5048592;28;20039;-83
2022/10/18 02:33:36;;;;;;;3.30;2.30;;;17.70;99.90;;;;;;5060977;28;20039;-83
2022/10/18 02:36:10;;;;;;;3.10;2.30;;;17.70;99.90;;;;;;5054236;28;20016;-83
2022/10/18 02:38:40;;;;;;;5.25;2.50;;;17.70;99.90;;;;;;5057150;28;20520;-83
2022/10/18 02:41:06;;;;;;;4.30;2.42;;;17.60;99.90;;;;;;5069675;28;20016;-83
2022/10/18 02:43:31;;;;;;;3.90;2.40;;;17.60;99.90;;;;;;5045549;28;20032;-83
2022/10/18 02:45:57;;;;;;;5.00;2.60;;;17.70;99.90;;;;;;5064178;28;20051;-83
2022/10/18 02:48:23;;;;;;;2.83;2.00;;;17.60;99.90;;;;;;5035495;28;20024;-83
2022/10/18 02:50:48;;;;;;;4.70;2.55;;;17.60;99.90;;;;;;5039219;28;20105;-83
2022/10/18 02:53:14;;;;;;;4.57;2.40;;;17.60;99.90;;;;;;5057443;28;20225;-83
2022/10/18 02:55:39;;;;;;;3.67;2.37;;;17.60;99.90;;;;;;5067006;28;20648;-83
2022/10/18 02:58:05;;;;;;;4.95;2.72;;;17.60;99.90;;;;;;5041383;28;20467;-83
2022/10/18 03:00:31;;;;;;;4.47;2.60;;;17.60;99.90;;;;;;5052679;28;20134;-83
2022/10/18 03:02:56;;;;;;;3.42;2.40;;;17.70;99.90;;;;;;5062476;28;20023;-83
2022/10/18 03:05:22;;;;;;;6.23;2.60;;;17.70;99.90;;;;;;5041976;28;20684;-83
2022/10/18 03:07:48;;;;;;;3.97;2.50;;;17.60;99.90;;;;;;5056476;28;20264;-83
2022/10/18 03:10:13;;;;;;;4.55;2.53;;;17.70;99.90;;;;;;5068701;28;20028;-83
2022/10/18 03:12:39;;;;;;;4.93;2.53;;;17.70;99.90;;;;;;5053582;28;20295;-83
2022/10/18 03:15:05;;;;;;;5.00;2.47;;;17.70;99.90;;;;;;5067446;28;20514;-83
2022/10/18 03:17:30;;;;;;;4.95;2.90;;;17.70;99.90;;;;;;5063213;28;20024;-84
2022/10/18 03:19:56;;;;;;;3.70;2.50;;;17.70;99.90;;;;;;5061737;28;20024;-84
2022/10/18 03:22:24;;;;;;;3.53;2.55;;;17.70;99.90;;;;;;5040997;28;20257;-83
2022/10/18 03:24:49;;;;;;;3.33;2.43;;;17.70;99.90;;;;;;5059556;28;20633;-84
2022/10/18 03:27:15;;;;;;;3.83;2.60;;;17.70;99.90;;;;;;5052213;28;20096;-84
2022/10/18 03:29:40;;;;;;;4.33;2.70;;;17.70;99.90;;;;;;5054707;28;20384;-83
2022/10/18 03:32:06;;;;;;;3.42;2.42;;;17.70;99.90;;;;;;5051512;28;20404;-83
2022/10/18 03:34:32;;;;;;;4.13;2.40;;;17.70;99.90;;;;;;5050879;28;20036;-83
2022/10/18 03:36:58;;;;;;;5.20;2.50;;;17.70;99.90;;;;;;5051058;28;20036;-83
2022/10/18 03:39:23;;;;;;;3.40;2.50;;;17.70;99.90;;;;;;5050865;28;20643;-83
2022/10/18 03:41:49;;;;;;;3.55;2.40;;;17.70;99.90;;;;;;5073157;28;20407;-83
2022/10/18 03:44:15;;;;;;;3.07;2.10;;;17.70;99.90;;;;;;5066508;28;20592;-83
2022/10/18 03:46:40;;;;;;;4.37;2.40;;;17.70;99.90;;;;;;5074349;28;20274;-83
2022/10/18 03:49:06;;;;;;;3.73;2.30;;;17.70;99.90;;;;;;5048906;28;20056;-83
2022/10/18 03:51:32;;;;;;;2.92;2.28;;;17.70;99.90;;;;;;5061305;28;20047;-83
2022/10/18 03:53:57;;;;;;;3.83;2.50;;;17.70;99.90;;;;;;5030276;28;20036;-83
2022/10/18 03:56:23;;;;;;;4.07;2.50;;;17.70;99.90;;;;;;5054467;28;20032;-83
2022/10/18 03:58:49;;;;;;;4.73;2.50;;;17.70;99.90;;;;;;5065212;28;20073;-83
2022/10/18 04:01:14;;;;;;;3.63;2.50;;;17.70;99.90;;;;;;5055889;28;20688;-83
2022/10/18 04:03:40;;;;;;;3.87;2.57;;;17.70;99.90;;;;;;5060843;28;20857;-83
2022/10/18 04:06:07;;;;;;;4.53;2.50;;;17.70;99.90;;;;;;5061703;28;20023;-83
2022/10/18 04:08:32;;;;;;;4.70;2.65;;;17.60;99.90;;;;;;5047995;28;20253;-83
2022/10/18 04:10:58;;;;;;;3.58;2.40;;;17.60;99.90;;;;;;5071830;28;20024;-83
2022/10/18 04:13:23;;;;;;;3.33;1.90;;;17.60;99.90;;;;;;5066397;28;20787;-83
2022/10/18 04:15:49;;;;;;;4.30;2.30;;;17.60;99.90;;;;;;5064483;28;20261;-83
2022/10/18 04:18:15;;;;;;;2.88;2.13;;;17.60;99.90;;;;;;5047712;28;20032;-83
2022/10/18 04:20:40;;;;;;;4.57;2.33;;;17.60;99.90;;;;;;5051110;28;20046;-83
2022/10/18 04:23:06;;;;;;;3.60;2.30;;;17.60;99.90;;;;;;5036281;28;20051;-83
2022/10/18 04:25:31;;;;;;;3.07;2.30;;;17.60;99.90;;;;;;5052442;28;20294;-83
2022/10/18 04:27:57;;;;;;;3.83;2.30;;;17.60;99.90;;;;;;5064701;28;20021;-83
2022/10/18 04:30:22;;;;;;;5.85;2.78;;;17.60;99.90;;;;;;5044035;28;20075;-83
2022/10/18 04:32:48;;;;;;;4.53;2.67;;;17.60;99.90;;;;;;5054095;28;20373;-83
2022/10/18 04:35:14;;;;;;;4.80;2.38;;;17.60;99.90;;;;;;5036350;28;20020;-83
2022/10/18 04:37:39;;;;;;;3.87;2.53;;;17.60;99.90;;;;;;5037201;28;20082;-83
2022/10/18 04:40:06;;;;;;;5.37;2.57;;;17.60;99.90;;;;;;5046287;28;20256;-83
2022/10/18 04:42:32;;;;;;;4.00;2.50;;;17.60;99.90;;;;;;5063378;28;20115;-83
2022/10/18 04:44:57;;;;;;;4.20;2.53;;;17.50;99.90;;;;;;5058375;28;20228;-83
2022/10/18 04:47:23;;;;;;;5.57;2.43;;;17.60;99.90;;;;;;5045970;28;20068;-84
2022/10/18 04:49:49;;;;;;;5.30;2.70;;;17.60;99.90;;;;;;5047063;28;20369;-84
2022/10/18 04:52:14;;;;;;;4.95;2.90;;;17.50;99.90;;;;;;5065784;28;20027;-83
2022/10/18 04:54:40;;;;;;;3.63;2.37;;;17.60;99.90;;;;;;5063004;28;20063;-83
2022/10/18 04:57:05;;;;;;;5.05;2.30;;;17.50;99.90;;;;;;5039759;28;20074;-83
2022/10/18 04:59:31;;;;;;;3.63;2.30;;;17.60;99.90;;;;;;5049521;28;20016;-83
2022/10/18 05:01:57;;;;;;;4.83;2.70;;;17.60;99.90;;;;;;5052789;28;20527;-83
2022/10/18 05:04:22;;;;;;;4.55;2.33;;;17.50;99.90;;;;;;5043892;28;20027;-83
2022/10/18 05:06:48;;;;;;;4.50;2.40;;;17.50;99.90;;;;;;5042559;28;20503;-83
2022/10/18 05:09:13;;;;;;;3.95;2.63;;;17.60;99.90;;;;;;5033931;28;20040;-83
2022/10/18 05:11:39;;;;;;;5.67;2.60;;;17.50;99.90;;;;;;5034577;28;20016;-83
2022/10/18 05:14:05;;;;;;;5.50;2.70;;;17.50;99.90;;;;;;5056859;28;20059;-83
2022/10/18 05:16:31;;;;;;;4.87;2.67;;;17.50;99.90;;;;;;5053587;28;20024;-83
2022/10/18 05:18:57;;;;;;;4.53;2.72;;;17.50;99.90;;;;;;5061543;28;20393;-83
2022/10/18 05:21:22;;;;;;;5.87;2.80;;;17.50;99.90;;;;;;5050169;28;20016;-83
2022/10/18 05:23:48;;;;;;;5.40;2.58;;;17.50;99.90;;;;;;5032886;28;20016;-83
2022/10/18 05:26:14;;;;;;;4.23;2.57;;;17.50;99.90;;;;;;5049091;28;20024;-83
2022/10/18 05:28:39;;;;;;;4.10;2.55;;;17.50;99.90;;;;;;5067094;28;20515;-83
2022/10/18 05:31:06;;;;;;;5.73;2.73;;;17.50;99.90;;;;;;5062164;28;20524;-83
2022/10/18 05:33:32;;;;;;;4.40;2.67;;;17.40;99.90;;;;;;5055510;28;20232;-83
2022/10/18 05:35:58;;;;;;;5.30;2.80;;;17.40;99.90;;;;;;5049568;28;20028;-83
2022/10/18 05:38:24;;;;;;;4.57;2.60;;;17.40;99.90;;;;;;5024779;28;20044;-83
2022/10/18 05:40:50;;;;;;;4.18;2.85;;;17.40;99.90;;;;;;5052500;28;20024;-83
2022/10/18 05:43:16;;;;;;;5.68;3.03;;;17.40;99.90;;;;;;5034203;28;20482;-83
2022/10/18 05:45:49;;;;;;;5.23;2.80;;;17.30;99.90;;;;;;5052564;28;20139;-83
2022/10/18 05:48:15;;;;;;;3.47;2.35;;;17.30;99.90;;;;;;5049897;28;20307;-83
2022/10/18 05:50:41;;;;;;;4.15;2.60;;;17.30;99.90;;;;;;5064442;28;20052;-83
2022/10/18 05:53:07;;;;;;;4.55;2.90;;;17.30;99.90;;;;;;5037785;28;20040;-83
2022/10/18 05:55:32;;;;;;;4.97;2.90;;;17.20;99.90;;;;;;5037563;28;20036;-83
2022/10/18 05:57:58;;;;;;;4.33;2.77;;;17.20;99.90;;;;;;5059746;28;20020;-83
2022/10/18 06:00:24;;;;;;;3.97;2.53;;;17.20;99.90;;;;;;5059118;28;20292;-83
2022/10/18 06:02:49;;;;;;;4.80;2.70;;;17.10;99.90;;;;;;5047309;28;20420;-83
2022/10/18 06:05:15;;;;;;;6.15;2.90;;;17.20;99.90;;;;;;5054002;28;20045;-84
2022/10/18 06:07:40;;;;;;;4.33;3.00;;;17.10;99.90;;;;;;5059752;28;20106;-83
2022/10/18 06:10:07;;;;;;;4.65;2.70;;;17.10;99.90;;;;;;5042631;28;20107;-83
2022/10/18 06:12:32;;;;;;;4.30;2.40;;;17.10;99.90;;;;;;5032101;28;20024;-83
2022/10/18 06:14:58;;;;;;;5.30;2.50;;;17.10;99.90;;;;;;5058780;28;20028;-83
2022/10/18 06:17:23;;;;;;;3.37;2.20;;;17.00;99.90;;;;;;5063878;28;20016;-83
2022/10/18 06:19:49;;;;;;;3.00;1.90;;;17.00;99.90;;;;;;5037715;28;20036;-83
2022/10/18 06:22:15;;;;;;;4.57;2.37;;;17.00;99.90;;;;;;5061285;28;20067;-83
2022/10/18 06:24:40;;;;;;;5.03;2.70;;;17.00;99.90;;;;;;5046554;28;20240;-83
2022/10/18 06:27:08;;;;;;;3.53;2.45;;;17.00;99.90;;;;;;5042439;28;20200;-83
2022/10/18 06:29:38;;;;;;;3.60;2.28;;;17.00;99.90;;;;;;5044557;28;20103;-83
2022/10/18 06:32:05;;;;;;;4.37;2.50;;;16.90;99.90;;;;;;5035841;28;20137;-83
2022/10/18 06:34:31;;;;;;;4.43;2.40;;;17.00;99.90;;;;;;5067615;28;20017;-83
2022/10/18 06:36:57;;;;;;;3.58;2.38;;;16.90;99.90;;;;;;5065675;28;20020;-83
2022/10/18 06:39:22;;;;;;;5.65;2.70;;;16.90;99.90;;;;;;5059547;28;20024;-83
2022/10/18 06:41:48;;;;;;;5.03;3.00;;;16.90;99.90;;;;;;5048984;28;20016;-83
2022/10/18 06:44:14;;;;;;;6.35;3.08;;;16.90;99.90;;;;;;5046572;28;20671;-83
2022/10/18 06:46:44;;;;;;;5.23;2.90;;;16.90;99.90;;;;;;5066346;28;20023;-83
2022/10/18 06:49:10;;;;;;;4.47;2.72;;;16.90;99.90;;;;;;5048008;28;20089;-83
2022/10/18 06:51:36;;;;;;;5.03;2.60;;;16.90;99.90;;;;;;5062634;28;20040;-83
2022/10/18 06:54:02;;;;;;;3.70;2.70;;;16.90;99.90;;;;;;5041924;28;20021;-83
2022/10/18 06:56:28;;;;;;;4.78;2.78;;;16.90;99.90;;;;;;5033119;28;20063;-83
2022/10/18 06:58:54;;;;;;;3.72;2.53;;;16.90;99.90;;;;;;5037326;28;20056;-83
2022/10/18 07:01:20;;;;;;;4.43;2.53;;;16.80;99.90;;;;;;5065785;28;20027;-83
2022/10/18 07:03:48;;;;;;;4.10;2.50;;;16.90;99.90;;;;;;5073511;28;20025;-83
2022/10/18 07:06:16;;;;;;;3.70;2.50;;;16.90;99.90;;;;;;5060529;28;20074;-83
2022/10/18 07:08:42;;;;;;;4.00;2.60;;;16.90;99.90;;;;;;5039077;28;20044;-83
2022/10/18 07:11:12;;;;;;;4.85;2.80;;;16.90;99.90;;;;;;5041033;28;20119;-83
2022/10/18 07:13:38;;;;;;;3.75;2.67;;;16.90;99.90;;;;;;5056232;28;20031;-83
2022/10/18 07:16:09;;;;;;;4.27;2.97;;;16.90;99.90;;;;;;5050581;28;20021;-83
2022/10/18 07:18:37;;;;;;;4.45;2.92;;;16.90;99.90;;;;;;5041398;28;20035;-83
2022/10/18 07:21:05;;;;;;;4.55;3.05;;;16.90;99.90;;;;;;5036511;28;20500;-83
2022/10/18 07:23:33;;;;;;;5.13;3.13;;;16.90;99.90;;;;;;5069239;28;20019;-83
2022/10/18 07:25:59;;;;;;;5.20;3.20;;;17.00;99.90;;;;;;5069401;28;20673;-83
2022/10/18 07:28:25;;;;;;;4.72;2.92;;;17.00;99.90;;;;;;5042768;28;20233;-83
2022/10/18 07:30:50;;;;;;;4.17;3.07;;;17.00;99.90;;;;;;5043266;28;20638;-83
2022/10/18 07:33:16;;;;;;;4.90;3.25;;;17.10;99.90;;;;;;5060519;28;20016;-83
2022/10/18 07:35:42;;;;;;;5.20;2.93;;;17.10;99.90;;;;;;5051327;28;20588;-83
2022/10/18 07:38:08;;;;;;;4.68;3.20;;;17.30;99.90;;;;;;5062070;28;20023;-83
2022/10/18 07:40:33;;;;;;;5.45;3.53;;;17.60;99.90;;;;;;5061887;28;20236;-83
2022/10/18 07:42:59;;;;;;;4.90;3.13;;;17.90;99.90;;;;;;5060693;28;20496;-83
2022/10/18 07:45:25;;;;;;;5.20;3.20;;;18.30;99.90;;;;;;5021069;28;20593;-83
2022/10/18 07:47:57;;;;;;;5.03;3.20;;;18.70;99.90;;;;;;5063919;28;20491;-83
2022/10/18 07:50:23;;;;;;;4.72;3.33;;;19.20;99.90;;;;;;5055974;28;20344;-83
2022/10/18 07:52:48;;;;;;;6.00;3.70;;;19.60;99.90;;;;;;5059852;28;20077;-83
2022/10/18 07:55:14;;;;;;;7.55;3.60;;;19.80;99.90;;;;;;5055637;28;20036;-83
2022/10/18 07:57:40;;;;;;;5.47;3.63;;;20.00;99.90;;;;;;5045485;28;20708;-83
2022/10/18 08:00:07;;;;;;;4.68;3.30;;;20.10;99.90;;;;;;5037681;28;20433;-83
2022/10/18 08:02:33;;;;;;;6.30;3.42;;;20.10;99.90;;;;;;5061465;27;20123;-83
2022/10/18 08:04:59;;;;;;;9.13;3.47;;;20.00;99.90;;;;;;5072268;28;20100;-83
2022/10/18 08:07:25;;;;;;;5.97;3.42;;;20.00;99.90;;;;;;5046933;28;20127;-83
2022/10/18 08:09:50;;;;;;;6.47;3.50;;;19.90;99.90;;;;;;5045624;28;20484;-83
2022/10/18 08:12:16;;;;;;;4.85;3.25;;;19.80;99.90;;;;;;5057561;28;20028;-83
2022/10/18 08:14:42;;;;;;;4.93;2.90;;;19.70;99.90;;;;;;5038383;28;20301;-83
2022/10/18 08:17:07;;;;;;;7.40;3.03;;;19.70;99.90;;;;;;5052495;28;20048;-83
2022/10/18 08:19:36;;;;;;;6.97;2.87;;;19.60;99.90;;;;;;5066202;28;20317;-84
2022/10/18 08:22:01;;;;;;;5.20;2.83;;;19.50;99.90;;;;;;5054026;28;20028;-83
2022/10/18 08:24:27;;;;;;;7.40;3.03;;;19.40;99.90;;;;;;5047055;28;20439;-85
2022/10/18 08:26:53;;;;;;;7.40;2.90;;;19.40;99.90;;;;;;5048939;28;20082;-83
2022/10/18 08:29:18;;;;;;;6.10;2.90;;;19.30;99.90;;;;;;5051809;28;20367;-83
2022/10/18 08:31:44;;;;;;;7.97;3.10;;;19.30;99.90;;;;;;5064601;28;20047;-83
2022/10/18 08:34:09;;;;;;;5.43;2.85;;;19.20;99.90;;;;;;5050715;28;20024;-84
2022/10/18 08:36:36;;;;;;;8.23;3.27;;;19.20;99.90;;;;;;5050185;28;20024;-83
2022/10/18 08:39:02;;;;;;;8.40;3.47;;;19.10;99.90;;;;;;5048289;28;20349;-82
2022/10/18 08:41:34;;;;;;;8.90;3.45;;;19.20;99.90;;;;;;5061073;28;20417;-83
2022/10/18 08:44:29;;;;;;;6.35;3.20;;;19.20;99.90;;;;;;5047443;28;20441;-83
2022/10/18 08:47:01;;;;;;;9.80;3.43;;;19.50;99.90;;;;;;5051873;28;20362;-83
2022/10/18 08:49:54;;;;;;;7.90;3.53;;;19.90;99.90;;;;;;5051116;28;20041;-83
2022/10/18 08:52:40;;;;;;;10.18;3.05;;;20.40;99.90;;;;;;5057112;28;20633;-83
2022/10/18 08:55:19;;;;;;;7.97;3.15;;;20.90;99.90;;;;;;5040633;28;20032;-83
2022/10/18 08:57:47;;;;;;;6.57;3.17;;;21.30;99.90;;;;;;5057351;28;20028;-83
2022/10/18 09:00:18;;;;;;;7.13;3.57;;;21.80;99.90;;;;;;5045835;28;20035;-84
2022/10/18 09:03:00;;;;;;;7.30;3.20;;;22.20;99.90;;;;;;5057326;28;20029;-83
2022/10/18 09:05:47;;;;;;;5.10;3.22;;;22.70;99.90;;;;;;5044887;28;20035;-83
2022/10/18 09:08:20;;;;;;;7.22;3.13;;;23.20;99.90;;;;;;5053801;28;20212;-84
2022/10/18 09:11:00;;;;;;;6.82;3.15;;;23.80;99.90;;;;;;5048190;28;20468;-83
2022/10/18 09:13:47;;;;;;;5.33;3.33;;;24.40;99.90;;;;;;5060911;28;20249;-83
2022/10/18 09:16:19;;;;;;;7.97;3.05;;;24.90;99.90;;;;;;5061395;28;20053;-84
2022/10/18 09:19:14;;;;;;;7.80;3.65;;;25.40;99.90;;;;;;5048594;28;20308;-83
2022/10/18 09:21:54;;;;;;;7.20;3.30;;;25.70;99.90;;;;;;5067220;28;20028;-84
2022/10/18 09:24:37;;;;;;;5.93;2.90;;;26.00;99.90;;;;;;5038758;28;20336;-84
2022/10/18 09:27:14;;;;;;;5.43;2.73;;;26.30;99.90;;;;;;5047451;28;20024;-84
2022/10/18 09:29:47;;;;;;;5.78;2.60;;;26.60;99.90;;;;;;5065055;28;20048;-84
2022/10/18 09:35:29;;;;;;;5.45;2.15;;;26.90;99.90;;;;;;5034402;28;20029;-84
2022/10/18 09:38:03;;;;;;;4.10;2.17;;;27.20;99.90;;;;;;5077752;28;20025;-84
2022/10/18 09:40:34;;;;;;;5.63;1.97;;;27.40;99.90;;;;;;5078299;28;20035;-84
2022/10/18 09:43:10;;;;;;;6.18;2.30;;;27.60;99.90;;;;;;5058812;28;20025;-84
2022/10/18 09:45:40;;;;;;;6.65;2.90;;;27.80;99.90;;;;;;5045537;28;20035;-84
2022/10/18 09:48:53;;;;;;;4.78;2.30;;;28.10;99.90;;;;;;5057210;28;20358;-85
2022/10/18 09:51:22;;;;;;;6.28;2.35;;;28.40;99.90;;;;;;5012783;28;20048;-83
2022/10/18 09:53:47;;;;;;;7.07;2.63;;;28.70;99.90;;;;;;5077697;28;20032;-84
2022/10/18 09:56:37;;;;;;;8.52;2.33;;;29.10;99.90;;;;;;5043211;28;20331;-85
2022/10/18 09:59:03;;;;;;;5.73;2.03;;;29.30;99.90;;;;;;5061671;28;20024;-84
2022/10/18 10:01:30;;;;;;;4.20;2.05;;;29.70;99.90;;;;;;5065810;28;20031;-84
2022/10/18 10:03:56;;;;;;;6.05;2.15;;;30.10;99.90;;;;;;5071519;28;20028;-84
2022/10/18 10:06:29;;;;;;;4.47;2.25;;;30.40;99.90;;;;;;5048741;28;20456;-83
2022/10/18 10:09:04;;;;;;;4.43;2.20;;;30.70;99.90;;;;;;5077948;28;20379;-84
2022/10/18 10:11:35;;;;;;;5.38;1.90;;;31.00;99.90;;;;;;5067668;28;20020;-84
2022/10/18 10:14:16;;;;;;;5.43;2.17;;;31.30;99.90;;;;;;5041395;28;20527;-84
2022/10/18 10:16:49;;;;;;;5.03;1.90;;;31.50;96.50;;;;;;5059793;28;20028;-84
2022/10/18 10:19:17;;;;;;;4.18;2.03;;;31.70;97.80;;;;;;5066661;28;21032;-84
2022/10/18 10:21:43;;;;;;;6.30;1.70;;;31.90;99.90;;;;;;5043293;28;20601;-84
2022/10/18 10:24:33;;;;;;;5.43;2.03;;;32.10;99.90;;;;;;5043344;28;20335;-84
2022/10/18 10:27:02;;;;;;;5.75;1.80;;;32.30;95.90;;;;;;5056116;28;20104;-84
2022/10/18 10:29:45;;;;;;;5.63;2.10;;;32.60;99.20;;;;;;5055256;28;20630;-84
2022/10/18 10:32:17;;;;;;;4.60;1.80;;;32.70;93.90;;;;;;5052889;28;20040;-85
2022/10/18 10:34:43;;;;;;;4.43;1.98;;;32.90;97.30;;;;;;5040827;28;20107;-84
2022/10/18 10:37:29;;;;;;;3.45;1.50;;;33.10;99.80;;;;;;5033007;28;20513;-84
2022/10/18 10:40:12;;;;;;;5.10;1.85;;;33.30;93.90;;;;;;5059296;28;20031;-85
2022/10/18 10:42:52;;;;;;;4.07;1.70;;;33.50;93.90;;;;;;5050971;28;20078;-85
2022/10/18 10:45:20;;;;;;;4.37;1.67;;;33.80;94.40;;;;;;5066025;28;20013;-84
2022/10/18 10:47:47;;;;;;;4.25;1.90;;;34.00;98.60;;;;;;5057948;28;20073;-85
2022/10/18 10:50:21;;;;;;;3.85;2.03;;;34.20;97.30;;;;;;5037580;28;20087;-85
2022/10/18 10:52:47;;;;;;;4.28;1.90;;;34.40;97.10;;;;;;5033917;28;20028;-84
2022/10/18 10:55:18;;;;;;;3.53;2.23;;;34.60;97.00;;;;;;5065299;28;20028;-84
2022/10/18 10:57:47;;;;;;;3.63;2.17;;;34.80;92.40;;;;;;5055812;28;20396;-84
2022/10/18 11:00:51;;;;;;;3.47;2.08;;;34.90;93.60;;;;;;5052039;28;20057;-85
2022/10/18 11:03:20;;;;;;;4.38;2.17;;;34.90;87.50;;;;;;4979535;28;20122;-84
2022/10/18 11:05:48;;;;;;;3.67;1.98;;;35.00;94.20;;;;;;4959995;28;20264;-84
2022/10/18 11:08:19;;;;;;;5.90;2.10;;;35.20;94.70;;;;;;5025016;28;20499;-84
2022/10/18 11:11:17;;;;;;;5.03;1.73;;;35.30;93.40;;;;;;5073437;28;20030;-85
2022/10/18 11:13:48;;;;;;;4.55;1.75;;;35.40;89.90;;;;;;5068572;28;20047;-84
2022/10/18 11:16:41;;;;;;;4.78;1.85;;;35.60;92.70;;;;;;5044534;28;20205;-84
2022/10/18 11:19:34;;;;;;;4.00;2.00;;;35.70;89.80;;;;;;5067586;28;20025;-84
2022/10/18 11:22:04;;;;;;;4.37;1.90;;;35.90;86.80;;;;;;5034998;28;20123;-84
2022/10/18 11:24:30;;;;;;;5.22;1.77;;;36.10;92.00;;;;;;5037650;28;20389;-84
2022/10/18 11:27:13;;;;;;;5.50;2.10;;;36.10;93.60;;;;;;5040174;28;20020;-84
2022/10/18 11:30:12;;;;;;;3.85;1.55;;;36.20;87.50;;;;;;5044736;28;20028;-84
2022/10/18 11:32:52;;;;;;;4.28;1.80;;;36.30;88.00;;;;;;5066372;28;20050;-84
2022/10/18 11:35:50;;;;;;;2.83;1.63;;;36.30;83.90;;;;;;5045750;28;20038;-84
2022/10/18 11:38:28;;;;;;;2.67;1.40;;;36.20;77.70;;;;;;5020370;28;20048;-84
2022/10/18 11:41:25;;;;;;;3.08;1.65;;;36.20;91.40;;;;;;5054096;28;20390;-84
2022/10/18 11:43:55;;;;;;;2.72;1.60;;;36.20;83.10;;;;;;5059489;28;20043;-85
2022/10/18 11:46:38;;;;;;;3.80;1.83;;;36.20;90.20;;;;;;5044882;28;20017;-84
2022/10/18 11:49:36;;;;;;;5.13;1.83;;;36.20;91.10;;;;;;5046736;28;20641;-84
2022/10/18 11:52:14;;;;;;;3.70;1.63;;;36.20;82.60;;;;;;5058061;28;20753;-84
2022/10/18 11:54:58;;;;;;;3.38;2.00;;;36.30;91.50;;;;;;5042908;28;20023;-84
2022/10/18 11:57:41;;;;;;;4.35;1.98;;;36.30;91.10;;;;;;5052402;28;20021;-84
2022/10/18 12:00:33;;;;;;;4.25;1.77;;;36.40;81.80;;;;;;5064985;28;20081;-84
2022/10/18 12:03:12;;;;;;;4.73;1.73;;;36.40;81.80;;;;;;5040128;28;20404;-84
2022/10/18 12:05:39;;;;;;;3.00;1.60;;;36.50;91.00;;;;;;5059428;28;20025;-84
2022/10/18 12:08:15;;;;;;;2.83;1.70;;;36.60;89.50;;;;;;5028412;28;20034;-84
2022/10/18 12:10:46;;;;;;;4.43;1.90;;;36.70;82.10;;;;;;5054404;28;20028;-84
2022/10/18 12:13:35;;;;;;;4.07;1.60;;;36.70;87.30;;;;;;5044848;28;20466;-84
2022/10/18 12:16:06;;;;;;;2.37;1.50;;;36.80;80.30;;;;;;5042752;28;20034;-84
2022/10/18 12:18:34;;;;;;;3.05;1.50;;;36.90;84.60;;;;;;5071049;28;20504;-85
2022/10/18 12:21:01;;;;;;;4.40;1.90;;;37.00;89.20;;;;;;5071897;28;20016;-84
2022/10/18 12:23:52;;;;;;;3.75;1.77;;;37.10;87.80;;;;;;5034464;28;20446;-84
2022/10/18 12:26:19;;;;;;;3.28;1.55;;;37.20;78.60;;;;;;5053144;28;20020;-84
2022/10/18 12:29:03;;;;;;;3.83;1.50;;;37.20;87.60;;;;;;5049396;28;20060;-84
2022/10/18 12:31:38;;;;;;;3.25;1.50;;;37.30;77.20;;;;;;5045224;28;20180;-84
2022/10/18 12:34:15;;;;;;;4.80;1.70;;;37.30;79.50;;;;;;5066735;28;20095;-84
2022/10/18 12:37:18;;;;;;;3.85;1.63;;;37.30;78.90;;;;;;5052603;28;20055;-84
2022/10/18 12:39:49;;;;;;;2.97;1.75;;;37.40;76.50;;;;;;5033001;28;20028;-84
2022/10/18 12:42:31;;;;;;;4.60;1.50;;;37.40;82.30;;;;;;5073684;28;20016;-84
2022/10/18 12:45:33;;;;;;;2.28;1.40;;;37.40;72.50;;;;;;5032026;28;20437;-84
2022/10/18 12:48:07;;;;;;;4.25;1.60;;;37.40;72.00;;;;;;5048067;28;20101;-84
2022/10/18 12:50:41;;;;;;;2.58;1.63;;;37.20;75.30;;;;;;5074375;28;20032;-84
2022/10/18 12:53:25;;;;;;;4.50;1.70;;;37.00;77.10;;;;;;5064205;28;20034;-84
2022/10/18 12:55:52;;;;;;;3.43;1.50;;;36.90;71.90;;;;;;5045754;28;20024;-85
2022/10/18 12:58:27;;;;;;;2.97;1.60;;;36.80;82.10;;;;;;5054944;28;20051;-84
2022/10/18 13:01:00;;;;;;;3.55;1.50;;;36.70;74.00;;;;;;5060131;28;20660;-84
2022/10/18 13:03:26;;;;;;;4.25;1.70;;;36.70;78.20;;;;;;5071260;28;20583;-83
2022/10/18 13:05:51;;;;;;;3.53;1.90;;;36.70;83.60;;;;;;5057479;28;20153;-83
2022/10/18 13:08:26;;;;;;;4.40;1.60;;;36.80;84.00;;;;;;5061609;28;20553;-84
2022/10/18 13:11:26;;;;;;;3.57;1.60;;;36.80;75.20;;;;;;5058573;28;20724;-84